sensor_id;sensor_type;location;lat;lon;timestamp;P1;durP1;ratioP1;P2;durP2;ratioP2
3629;SDS011;1831;53.626;10.012;2022-07-22T00:02:13;20.30;;;18.20;;
3629;SDS011;1831;53.626;10.012;2022-07-22T00:04:40;20.43;;;18.40;;
3629;SDS011;1831;53.626;10.012;2022-07-22T00:07:06;25.60;;;23.00;;
3629;SDS011;1831;53.626;10.012;2022-07-22T00:09:34;19.43;;;17.30;;
3629;SDS011;1831;53.626;10.012;2022-07-22T00:12:00;20.97;;;18.77;;
3629;SDS011;1831;53.626;10.012;2022-07-22T00:14:27;31.83;;;21.80;;
3629;SDS011;1831;53.626;10.012;2022-07-22T00:16:55;23.83;;;20.50;;
3629;SDS011;1831;53.626;10.012;2022-07-22T00:19:24;24.40;;;18.40;;
3629;SDS011;1831;53.626;10.012;2022-07-22T00:21:51;26.97;;;18.93;;
3629;SDS011;1831;53.626;10.012;2022-07-22T00:24:18;23.90;;;20.20;;
3629;SDS011;1831;53.626;10.012;2022-07-22T00:26:45;36.30;;;27.97;;
3629;SDS011;1831;53.626;10.012;2022-07-22T00:29:12;25.00;;;20.63;;
3629;SDS011;1831;53.626;10.012;2022-07-22T00:31:39;22.40;;;19.63;;
3629;SDS011;1831;53.626;10.012;2022-07-22T00:34:05;21.70;;;18.97;;
3629;SDS011;1831;53.626;10.012;2022-07-22T00:36:34;22.03;;;19.53;;
3629;SDS011;1831;53.626;10.012;2022-07-22T00:39:01;19.87;;;17.83;;
3629;SDS011;1831;53.626;10.012;2022-07-22T00:41:28;21.77;;;17.53;;
3629;SDS011;1831;53.626;10.012;2022-07-22T00:43:57;22.80;;;15.80;;
3629;SDS011;1831;53.626;10.012;2022-07-22T00:46:25;20.50;;;14.73;;
3629;SDS011;1831;53.626;10.012;2022-07-22T00:48:53;18.70;;;12.83;;
3629;SDS011;1831;53.626;10.012;2022-07-22T00:51:21;15.67;;;12.80;;
3629;SDS011;1831;53.626;10.012;2022-07-22T00:53:50;16.40;;;12.40;;
3629;SDS011;1831;53.626;10.012;2022-07-22T00:56:18;17.27;;;11.80;;
3629;SDS011;1831;53.626;10.012;2022-07-22T00:58:47;10.27;;;8.00;;
3629;SDS011;1831;53.626;10.012;2022-07-22T01:01:15;9.70;;;6.80;;
3629;SDS011;1831;53.626;10.012;2022-07-22T01:03:43;10.73;;;7.57;;
3629;SDS011;1831;53.626;10.012;2022-07-22T01:06:10;8.20;;;6.97;;
3629;SDS011;1831;53.626;10.012;2022-07-22T01:08:39;9.90;;;4.30;;
3629;SDS011;1831;53.626;10.012;2022-07-22T01:11:09;11.90;;;8.40;;
3629;SDS011;1831;53.626;10.012;2022-07-22T01:13:37;8.57;;;6.37;;
3629;SDS011;1831;53.626;10.012;2022-07-22T01:16:05;5.30;;;3.10;;
3629;SDS011;1831;53.626;10.012;2022-07-22T01:18:33;4.80;;;2.53;;
3629;SDS011;1831;53.626;10.012;2022-07-22T01:21:02;14.73;;;9.30;;
3629;SDS011;1831;53.626;10.012;2022-07-22T01:23:29;5.47;;;2.70;;
3629;SDS011;1831;53.626;10.012;2022-07-22T01:25:56;6.87;;;3.10;;
3629;SDS011;1831;53.626;10.012;2022-07-22T01:28:23;5.27;;;2.83;;
3629;SDS011;1831;53.626;10.012;2022-07-22T01:30:50;6.27;;;3.80;;
3629;SDS011;1831;53.626;10.012;2022-07-22T01:33:17;7.63;;;3.13;;
3629;SDS011;1831;53.626;10.012;2022-07-22T01:35:44;6.50;;;2.80;;
3629;SDS011;1831;53.626;10.012;2022-07-22T01:38:13;6.80;;;3.47;;
3629;SDS011;1831;53.626;10.012;2022-07-22T01:40:41;6.93;;;3.20;;
3629;SDS011;1831;53.626;10.012;2022-07-22T01:43:09;10.70;;;5.90;;
3629;SDS011;1831;53.626;10.012;2022-07-22T01:45:36;7.10;;;3.37;;
3629;SDS011;1831;53.626;10.012;2022-07-22T01:48:03;7.20;;;3.37;;
3629;SDS011;1831;53.626;10.012;2022-07-22T01:50:31;6.73;;;3.10;;
3629;SDS011;1831;53.626;10.012;2022-07-22T01:52:58;8.77;;;3.20;;
3629;SDS011;1831;53.626;10.012;2022-07-22T01:55:26;10.73;;;6.10;;
3629;SDS011;1831;53.626;10.012;2022-07-22T01:57:53;14.73;;;7.47;;
3629;SDS011;1831;53.626;10.012;2022-07-22T02:00:20;13.40;;;7.00;;
3629;SDS011;1831;53.626;10.012;2022-07-22T02:02:47;13.47;;;8.70;;
3629;SDS011;1831;53.626;10.012;2022-07-22T02:05:14;13.80;;;8.13;;
3629;SDS011;1831;53.626;10.012;2022-07-22T02:07:41;14.93;;;7.67;;
3629;SDS011;1831;53.626;10.012;2022-07-22T02:10:08;14.20;;;8.17;;
3629;SDS011;1831;53.626;10.012;2022-07-22T02:12:36;15.70;;;6.73;;
3629;SDS011;1831;53.626;10.012;2022-07-22T02:15:04;16.33;;;7.10;;
3629;SDS011;1831;53.626;10.012;2022-07-22T02:17:32;9.60;;;5.90;;
3629;SDS011;1831;53.626;10.012;2022-07-22T02:19:59;11.33;;;5.17;;
3629;SDS011;1831;53.626;10.012;2022-07-22T02:22:26;13.40;;;5.90;;
3629;SDS011;1831;53.626;10.012;2022-07-22T02:24:53;14.40;;;5.53;;
3629;SDS011;1831;53.626;10.012;2022-07-22T02:27:20;9.77;;;4.40;;
3629;SDS011;1831;53.626;10.012;2022-07-22T02:29:49;9.80;;;4.83;;
3629;SDS011;1831;53.626;10.012;2022-07-22T02:32:15;8.80;;;4.90;;
3629;SDS011;1831;53.626;10.012;2022-07-22T02:34:42;8.60;;;5.00;;
3629;SDS011;1831;53.626;10.012;2022-07-22T02:37:09;12.60;;;4.77;;
3629;SDS011;1831;53.626;10.012;2022-07-22T02:39:36;8.20;;;3.80;;
3629;SDS011;1831;53.626;10.012;2022-07-22T02:42:03;7.30;;;4.00;;
3629;SDS011;1831;53.626;10.012;2022-07-22T02:44:30;10.63;;;4.00;;
3629;SDS011;1831;53.626;10.012;2022-07-22T02:46:58;8.00;;;4.40;;
3629;SDS011;1831;53.626;10.012;2022-07-22T02:49:25;11.27;;;4.17;;
3629;SDS011;1831;53.626;10.012;2022-07-22T02:51:52;9.57;;;3.90;;
3629;SDS011;1831;53.626;10.012;2022-07-22T02:54:19;9.13;;;3.50;;
3629;SDS011;1831;53.626;10.012;2022-07-22T02:56:46;10.70;;;3.80;;
3629;SDS011;1831;53.626;10.012;2022-07-22T02:59:13;12.63;;;3.80;;
3629;SDS011;1831;53.626;10.012;2022-07-22T03:01:39;11.93;;;3.33;;
3629;SDS011;1831;53.626;10.012;2022-07-22T03:04:08;8.30;;;3.60;;
3629;SDS011;1831;53.626;10.012;2022-07-22T03:06:35;16.20;;;3.60;;
3629;SDS011;1831;53.626;10.012;2022-07-22T03:09:02;10.90;;;4.37;;
3629;SDS011;1831;53.626;10.012;2022-07-22T03:11:29;9.80;;;2.90;;
3629;SDS011;1831;53.626;10.012;2022-07-22T03:13:56;10.90;;;3.33;;
3629;SDS011;1831;53.626;10.012;2022-07-22T03:16:23;8.57;;;3.30;;
3629;SDS011;1831;53.626;10.012;2022-07-22T03:18:50;9.60;;;3.27;;
3629;SDS011;1831;53.626;10.012;2022-07-22T03:21:18;9.60;;;2.63;;
3629;SDS011;1831;53.626;10.012;2022-07-22T03:23:45;9.00;;;3.30;;
3629;SDS011;1831;53.626;10.012;2022-07-22T03:26:12;9.93;;;3.60;;
3629;SDS011;1831;53.626;10.012;2022-07-22T03:28:39;11.07;;;3.00;;
3629;SDS011;1831;53.626;10.012;2022-07-22T03:31:05;7.60;;;3.17;;
3629;SDS011;1831;53.626;10.012;2022-07-22T03:33:32;9.30;;;3.43;;
3629;SDS011;1831;53.626;10.012;2022-07-22T03:35:59;8.50;;;3.07;;
3629;SDS011;1831;53.626;10.012;2022-07-22T03:38:27;8.10;;;3.40;;
3629;SDS011;1831;53.626;10.012;2022-07-22T03:40:54;11.07;;;2.73;;
3629;SDS011;1831;53.626;10.012;2022-07-22T03:43:21;11.40;;;2.90;;
3629;SDS011;1831;53.626;10.012;2022-07-22T03:45:48;7.87;;;2.70;;
3629;SDS011;1831;53.626;10.012;2022-07-22T03:48:15;7.40;;;2.80;;
3629;SDS011;1831;53.626;10.012;2022-07-22T03:50:42;8.47;;;3.50;;
3629;SDS011;1831;53.626;10.012;2022-07-22T03:53:09;7.20;;;2.90;;
3629;SDS011;1831;53.626;10.012;2022-07-22T03:55:37;9.93;;;3.47;;
3629;SDS011;1831;53.626;10.012;2022-07-22T03:58:04;6.90;;;2.90;;
3629;SDS011;1831;53.626;10.012;2022-07-22T04:00:31;4.77;;;2.67;;
3629;SDS011;1831;53.626;10.012;2022-07-22T04:02:58;8.50;;;3.00;;
3629;SDS011;1831;53.626;10.012;2022-07-22T04:05:25;8.60;;;3.27;;
3629;SDS011;1831;53.626;10.012;2022-07-22T04:07:52;6.63;;;2.90;;
3629;SDS011;1831;53.626;10.012;2022-07-22T04:10:19;8.37;;;2.93;;
3629;SDS011;1831;53.626;10.012;2022-07-22T04:12:47;7.53;;;3.20;;
3629;SDS011;1831;53.626;10.012;2022-07-22T04:15:14;8.97;;;3.63;;
3629;SDS011;1831;53.626;10.012;2022-07-22T04:17:41;10.33;;;3.27;;
3629;SDS011;1831;53.626;10.012;2022-07-22T04:20:08;5.80;;;2.87;;
3629;SDS011;1831;53.626;10.012;2022-07-22T04:22:36;8.80;;;3.47;;
3629;SDS011;1831;53.626;10.012;2022-07-22T04:25:03;14.17;;;4.20;;
3629;SDS011;1831;53.626;10.012;2022-07-22T04:27:30;8.83;;;3.00;;
3629;SDS011;1831;53.626;10.012;2022-07-22T04:29:59;12.40;;;3.13;;
3629;SDS011;1831;53.626;10.012;2022-07-22T04:32:26;12.03;;;3.40;;
3629;SDS011;1831;53.626;10.012;2022-07-22T04:34:53;15.67;;;3.93;;
3629;SDS011;1831;53.626;10.012;2022-07-22T04:37:20;7.20;;;2.77;;
3629;SDS011;1831;53.626;10.012;2022-07-22T04:39:47;11.00;;;3.27;;
3629;SDS011;1831;53.626;10.012;2022-07-22T04:42:13;14.03;;;3.23;;
3629;SDS011;1831;53.626;10.012;2022-07-22T04:44:40;10.20;;;3.00;;
3629;SDS011;1831;53.626;10.012;2022-07-22T04:47:11;7.80;;;2.83;;
3629;SDS011;1831;53.626;10.012;2022-07-22T04:49:38;10.33;;;3.67;;
3629;SDS011;1831;53.626;10.012;2022-07-22T04:52:05;8.77;;;2.67;;
3629;SDS011;1831;53.626;10.012;2022-07-22T04:54:32;9.90;;;3.33;;
3629;SDS011;1831;53.626;10.012;2022-07-22T04:56:59;8.40;;;3.43;;
3629;SDS011;1831;53.626;10.012;2022-07-22T04:59:26;6.37;;;2.90;;
3629;SDS011;1831;53.626;10.012;2022-07-22T05:01:53;10.73;;;3.10;;
3629;SDS011;1831;53.626;10.012;2022-07-22T05:04:21;7.50;;;2.37;;
3629;SDS011;1831;53.626;10.012;2022-07-22T05:06:48;8.93;;;3.40;;
3629;SDS011;1831;53.626;10.012;2022-07-22T05:09:15;5.53;;;2.43;;
3629;SDS011;1831;53.626;10.012;2022-07-22T05:11:42;5.70;;;2.70;;
3629;SDS011;1831;53.626;10.012;2022-07-22T05:14:08;8.73;;;2.77;;
3629;SDS011;1831;53.626;10.012;2022-07-22T05:16:35;10.87;;;3.40;;
3629;SDS011;1831;53.626;10.012;2022-07-22T05:19:03;9.20;;;3.80;;
3629;SDS011;1831;53.626;10.012;2022-07-22T05:21:31;12.27;;;3.73;;
3629;SDS011;1831;53.626;10.012;2022-07-22T05:23:58;12.50;;;4.33;;
3629;SDS011;1831;53.626;10.012;2022-07-22T05:26:25;14.30;;;4.73;;
3629;SDS011;1831;53.626;10.012;2022-07-22T05:28:53;13.77;;;4.03;;
3629;SDS011;1831;53.626;10.012;2022-07-22T05:31:20;7.60;;;3.53;;
3629;SDS011;1831;53.626;10.012;2022-07-22T05:33:47;13.87;;;4.53;;
3629;SDS011;1831;53.626;10.012;2022-07-22T05:36:14;8.57;;;4.37;;
3629;SDS011;1831;53.626;10.012;2022-07-22T05:38:42;12.23;;;3.97;;
3629;SDS011;1831;53.626;10.012;2022-07-22T05:41:09;15.27;;;4.50;;
3629;SDS011;1831;53.626;10.012;2022-07-22T05:43:36;12.67;;;4.80;;
3629;SDS011;1831;53.626;10.012;2022-07-22T05:46:03;18.33;;;10.20;;
3629;SDS011;1831;53.626;10.012;2022-07-22T05:48:30;17.97;;;4.90;;
3629;SDS011;1831;53.626;10.012;2022-07-22T05:50:57;14.70;;;6.20;;
3629;SDS011;1831;53.626;10.012;2022-07-22T05:53:24;13.83;;;7.50;;
3629;SDS011;1831;53.626;10.012;2022-07-22T05:55:53;10.17;;;3.77;;
3629;SDS011;1831;53.626;10.012;2022-07-22T05:58:20;11.00;;;3.93;;
3629;SDS011;1831;53.626;10.012;2022-07-22T06:00:46;9.53;;;3.97;;
3629;SDS011;1831;53.626;10.012;2022-07-22T06:03:13;7.33;;;3.20;;
3629;SDS011;1831;53.626;10.012;2022-07-22T06:05:41;10.60;;;4.07;;
3629;SDS011;1831;53.626;10.012;2022-07-22T06:08:07;15.17;;;4.37;;
3629;SDS011;1831;53.626;10.012;2022-07-22T06:10:34;11.87;;;4.53;;
3629;SDS011;1831;53.626;10.012;2022-07-22T06:13:03;9.53;;;4.10;;
3629;SDS011;1831;53.626;10.012;2022-07-22T06:15:29;8.83;;;3.93;;
3629;SDS011;1831;53.626;10.012;2022-07-22T06:17:56;12.17;;;4.23;;
3629;SDS011;1831;53.626;10.012;2022-07-22T06:20:23;8.37;;;3.30;;
3629;SDS011;1831;53.626;10.012;2022-07-22T06:22:50;12.33;;;3.90;;
3629;SDS011;1831;53.626;10.012;2022-07-22T06:25:17;11.80;;;5.40;;
3629;SDS011;1831;53.626;10.012;2022-07-22T06:27:44;9.17;;;4.00;;
3629;SDS011;1831;53.626;10.012;2022-07-22T06:30:13;11.30;;;3.73;;
3629;SDS011;1831;53.626;10.012;2022-07-22T06:32:39;11.83;;;3.93;;
3629;SDS011;1831;53.626;10.012;2022-07-22T06:35:07;9.73;;;3.43;;
3629;SDS011;1831;53.626;10.012;2022-07-22T06:37:34;10.20;;;3.60;;
3629;SDS011;1831;53.626;10.012;2022-07-22T06:40:01;14.90;;;4.10;;
3629;SDS011;1831;53.626;10.012;2022-07-22T06:42:29;12.93;;;4.73;;
3629;SDS011;1831;53.626;10.012;2022-07-22T06:44:56;11.97;;;4.40;;
3629;SDS011;1831;53.626;10.012;2022-07-22T06:47:24;15.47;;;4.07;;
3629;SDS011;1831;53.626;10.012;2022-07-22T06:49:51;11.00;;;4.30;;
3629;SDS011;1831;53.626;10.012;2022-07-22T06:52:18;15.40;;;4.43;;
3629;SDS011;1831;53.626;10.012;2022-07-22T06:54:45;9.40;;;4.17;;
3629;SDS011;1831;53.626;10.012;2022-07-22T06:57:11;15.00;;;4.60;;
3629;SDS011;1831;53.626;10.012;2022-07-22T06:59:38;14.00;;;4.80;;
3629;SDS011;1831;53.626;10.012;2022-07-22T07:02:05;12.80;;;4.97;;
3629;SDS011;1831;53.626;10.012;2022-07-22T07:04:35;9.80;;;4.13;;
3629;SDS011;1831;53.626;10.012;2022-07-22T07:07:01;11.83;;;4.87;;
3629;SDS011;1831;53.626;10.012;2022-07-22T07:09:28;8.53;;;4.80;;
3629;SDS011;1831;53.626;10.012;2022-07-22T07:11:55;13.37;;;4.37;;
3629;SDS011;1831;53.626;10.012;2022-07-22T07:14:22;9.23;;;4.00;;
3629;SDS011;1831;53.626;10.012;2022-07-22T07:16:49;11.70;;;4.47;;
3629;SDS011;1831;53.626;10.012;2022-07-22T07:19:16;12.03;;;4.30;;
3629;SDS011;1831;53.626;10.012;2022-07-22T07:21:46;12.50;;;4.13;;
3629;SDS011;1831;53.626;10.012;2022-07-22T07:24:13;13.90;;;4.13;;
3629;SDS011;1831;53.626;10.012;2022-07-22T07:26:39;11.60;;;4.20;;
3629;SDS011;1831;53.626;10.012;2022-07-22T07:29:07;14.37;;;4.33;;
3629;SDS011;1831;53.626;10.012;2022-07-22T07:31:34;12.80;;;3.97;;
3629;SDS011;1831;53.626;10.012;2022-07-22T07:34:01;13.70;;;4.33;;
3629;SDS011;1831;53.626;10.012;2022-07-22T07:36:28;19.97;;;4.90;;
3629;SDS011;1831;53.626;10.012;2022-07-22T07:38:56;10.50;;;3.77;;
3629;SDS011;1831;53.626;10.012;2022-07-22T07:41:23;13.30;;;4.30;;
3629;SDS011;1831;53.626;10.012;2022-07-22T07:43:50;15.40;;;3.77;;
3629;SDS011;1831;53.626;10.012;2022-07-22T07:46:17;14.00;;;4.90;;
3629;SDS011;1831;53.626;10.012;2022-07-22T07:48:44;14.87;;;4.13;;
3629;SDS011;1831;53.626;10.012;2022-07-22T07:51:13;9.70;;;3.60;;
3629;SDS011;1831;53.626;10.012;2022-07-22T07:53:40;12.30;;;3.97;;
3629;SDS011;1831;53.626;10.012;2022-07-22T07:56:09;20.43;;;5.03;;
3629;SDS011;1831;53.626;10.012;2022-07-22T07:58:36;14.30;;;3.50;;
3629;SDS011;1831;53.626;10.012;2022-07-22T08:01:04;16.27;;;4.03;;
3629;SDS011;1831;53.626;10.012;2022-07-22T08:03:31;6.70;;;3.00;;
3629;SDS011;1831;53.626;10.012;2022-07-22T08:05:58;12.33;;;4.27;;
3629;SDS011;1831;53.626;10.012;2022-07-22T08:08:25;12.57;;;4.40;;
3629;SDS011;1831;53.626;10.012;2022-07-22T08:10:53;11.43;;;4.37;;
3629;SDS011;1831;53.626;10.012;2022-07-22T08:13:21;15.23;;;3.73;;
3629;SDS011;1831;53.626;10.012;2022-07-22T08:15:48;12.10;;;4.10;;
3629;SDS011;1831;53.626;10.012;2022-07-22T08:18:15;10.67;;;3.60;;
3629;SDS011;1831;53.626;10.012;2022-07-22T08:20:42;8.33;;;3.43;;
3629;SDS011;1831;53.626;10.012;2022-07-22T08:23:09;14.50;;;4.10;;
3629;SDS011;1831;53.626;10.012;2022-07-22T08:25:36;11.03;;;3.57;;
3629;SDS011;1831;53.626;10.012;2022-07-22T08:28:03;21.37;;;4.10;;
3629;SDS011;1831;53.626;10.012;2022-07-22T08:30:33;8.37;;;3.23;;
3629;SDS011;1831;53.626;10.012;2022-07-22T08:33:00;15.57;;;4.10;;
3629;SDS011;1831;53.626;10.012;2022-07-22T08:35:27;11.27;;;4.63;;
3629;SDS011;1831;53.626;10.012;2022-07-22T08:37:54;10.00;;;3.50;;
3629;SDS011;1831;53.626;10.012;2022-07-22T08:40:20;12.97;;;4.40;;
3629;SDS011;1831;53.626;10.012;2022-07-22T08:42:48;12.43;;;4.10;;
3629;SDS011;1831;53.626;10.012;2022-07-22T08:45:16;12.37;;;3.47;;
3629;SDS011;1831;53.626;10.012;2022-07-22T08:47:46;11.63;;;3.20;;
3629;SDS011;1831;53.626;10.012;2022-07-22T08:50:14;13.00;;;3.13;;
3629;SDS011;1831;53.626;10.012;2022-07-22T08:52:41;14.80;;;3.23;;
3629;SDS011;1831;53.626;10.012;2022-07-22T08:55:09;11.47;;;3.07;;
3629;SDS011;1831;53.626;10.012;2022-07-22T08:57:36;14.93;;;4.03;;
3629;SDS011;1831;53.626;10.012;2022-07-22T09:00:08;9.80;;;3.10;;
3629;SDS011;1831;53.626;10.012;2022-07-22T09:02:38;10.87;;;3.10;;
3629;SDS011;1831;53.626;10.012;2022-07-22T09:05:08;16.83;;;3.73;;
3629;SDS011;1831;53.626;10.012;2022-07-22T09:07:39;15.33;;;4.47;;
3629;SDS011;1831;53.626;10.012;2022-07-22T09:10:08;11.33;;;3.17;;
3629;SDS011;1831;53.626;10.012;2022-07-22T09:12:38;8.30;;;3.57;;
3629;SDS011;1831;53.626;10.012;2022-07-22T09:15:23;10.20;;;3.10;;
3629;SDS011;1831;53.626;10.012;2022-07-22T09:17:52;11.00;;;3.13;;
3629;SDS011;1831;53.626;10.012;2022-07-22T09:20:21;10.40;;;3.47;;
3629;SDS011;1831;53.626;10.012;2022-07-22T09:22:48;13.07;;;2.87;;
3629;SDS011;1831;53.626;10.012;2022-07-22T09:25:20;11.13;;;3.37;;
3629;SDS011;1831;53.626;10.012;2022-07-22T09:27:53;16.13;;;3.70;;
3629;SDS011;1831;53.626;10.012;2022-07-22T09:30:22;10.73;;;3.73;;
3629;SDS011;1831;53.626;10.012;2022-07-22T09:32:51;10.97;;;3.20;;
3629;SDS011;1831;53.626;10.012;2022-07-22T09:35:20;10.93;;;2.80;;
3629;SDS011;1831;53.626;10.012;2022-07-22T09:37:51;8.20;;;2.70;;
3629;SDS011;1831;53.626;10.012;2022-07-22T09:40:19;8.87;;;2.80;;
3629;SDS011;1831;53.626;10.012;2022-07-22T09:42:49;10.73;;;3.37;;
3629;SDS011;1831;53.626;10.012;2022-07-22T09:45:17;8.53;;;3.00;;
3629;SDS011;1831;53.626;10.012;2022-07-22T09:47:45;12.03;;;3.10;;
3629;SDS011;1831;53.626;10.012;2022-07-22T09:50:14;11.93;;;3.03;;
3629;SDS011;1831;53.626;10.012;2022-07-22T09:52:47;18.30;;;3.30;;
3629;SDS011;1831;53.626;10.012;2022-07-22T09:55:15;6.77;;;2.80;;
3629;SDS011;1831;53.626;10.012;2022-07-22T09:57:43;8.30;;;2.60;;
3629;SDS011;1831;53.626;10.012;2022-07-22T10:00:11;10.33;;;2.90;;
3629;SDS011;1831;53.626;10.012;2022-07-22T10:02:41;7.57;;;2.60;;
3629;SDS011;1831;53.626;10.012;2022-07-22T10:05:13;14.93;;;3.03;;
3629;SDS011;1831;53.626;10.012;2022-07-22T10:07:41;6.23;;;2.57;;
3629;SDS011;1831;53.626;10.012;2022-07-22T10:10:12;7.27;;;2.23;;
3629;SDS011;1831;53.626;10.012;2022-07-22T10:12:40;10.97;;;2.77;;
3629;SDS011;1831;53.626;10.012;2022-07-22T10:15:08;9.87;;;3.17;;
3629;SDS011;1831;53.626;10.012;2022-07-22T10:17:36;8.07;;;2.87;;
3629;SDS011;1831;53.626;10.012;2022-07-22T10:20:05;7.40;;;2.60;;
3629;SDS011;1831;53.626;10.012;2022-07-22T10:22:44;9.40;;;2.93;;
3629;SDS011;1831;53.626;10.012;2022-07-22T10:25:16;6.53;;;2.63;;
3629;SDS011;1831;53.626;10.012;2022-07-22T10:27:44;11.27;;;2.53;;
3629;SDS011;1831;53.626;10.012;2022-07-22T10:30:14;13.03;;;2.80;;
3629;SDS011;1831;53.626;10.012;2022-07-22T10:32:44;11.30;;;2.60;;
3629;SDS011;1831;53.626;10.012;2022-07-22T10:35:21;5.20;;;2.10;;
3629;SDS011;1831;53.626;10.012;2022-07-22T10:37:51;6.63;;;2.80;;
3629;SDS011;1831;53.626;10.012;2022-07-22T10:40:22;12.00;;;2.87;;
3629;SDS011;1831;53.626;10.012;2022-07-22T10:43:02;6.60;;;2.63;;
3629;SDS011;1831;53.626;10.012;2022-07-22T10:45:40;7.97;;;2.30;;
3629;SDS011;1831;53.626;10.012;2022-07-22T10:48:10;12.33;;;3.30;;
3629;SDS011;1831;53.626;10.012;2022-07-22T10:50:47;10.60;;;2.80;;
3629;SDS011;1831;53.626;10.012;2022-07-22T10:53:24;9.50;;;2.60;;
3629;SDS011;1831;53.626;10.012;2022-07-22T10:56:11;9.30;;;2.30;;
3629;SDS011;1831;53.626;10.012;2022-07-22T10:58:47;5.73;;;2.60;;
3629;SDS011;1831;53.626;10.012;2022-07-22T11:01:20;9.47;;;2.77;;
3629;SDS011;1831;53.626;10.012;2022-07-22T11:03:49;5.73;;;2.30;;
3629;SDS011;1831;53.626;10.012;2022-07-22T11:06:21;7.20;;;2.73;;
3629;SDS011;1831;53.626;10.012;2022-07-22T11:08:51;6.07;;;2.23;;
3629;SDS011;1831;53.626;10.012;2022-07-22T11:11:31;7.40;;;2.10;;
3629;SDS011;1831;53.626;10.012;2022-07-22T11:14:13;9.97;;;2.77;;
3629;SDS011;1831;53.626;10.012;2022-07-22T11:16:42;8.70;;;2.60;;
3629;SDS011;1831;53.626;10.012;2022-07-22T11:19:10;12.77;;;2.63;;
3629;SDS011;1831;53.626;10.012;2022-07-22T11:21:37;9.83;;;2.50;;
3629;SDS011;1831;53.626;10.012;2022-07-22T11:24:06;7.20;;;2.27;;
3629;SDS011;1831;53.626;10.012;2022-07-22T11:26:35;7.63;;;2.47;;
3629;SDS011;1831;53.626;10.012;2022-07-22T11:29:06;10.00;;;3.03;;
3629;SDS011;1831;53.626;10.012;2022-07-22T11:31:33;9.50;;;2.73;;
3629;SDS011;1831;53.626;10.012;2022-07-22T11:34:07;6.17;;;2.50;;
3629;SDS011;1831;53.626;10.012;2022-07-22T11:36:36;10.60;;;2.93;;
3629;SDS011;1831;53.626;10.012;2022-07-22T11:39:04;7.67;;;2.47;;
3629;SDS011;1831;53.626;10.012;2022-07-22T11:41:32;8.03;;;2.53;;
3629;SDS011;1831;53.626;10.012;2022-07-22T11:44:01;6.47;;;2.27;;
3629;SDS011;1831;53.626;10.012;2022-07-22T11:46:29;9.57;;;2.60;;
3629;SDS011;1831;53.626;10.012;2022-07-22T11:49:02;9.00;;;2.63;;
3629;SDS011;1831;53.626;10.012;2022-07-22T11:51:29;7.10;;;2.37;;
3629;SDS011;1831;53.626;10.012;2022-07-22T11:53:57;14.87;;;2.90;;
3629;SDS011;1831;53.626;10.012;2022-07-22T11:56:24;7.43;;;2.40;;
3629;SDS011;1831;53.626;10.012;2022-07-22T11:58:52;7.73;;;2.50;;
3629;SDS011;1831;53.626;10.012;2022-07-22T12:01:22;10.73;;;2.10;;
3629;SDS011;1831;53.626;10.012;2022-07-22T12:03:50;5.03;;;2.00;;
3629;SDS011;1831;53.626;10.012;2022-07-22T12:06:19;5.93;;;2.30;;
3629;SDS011;1831;53.626;10.012;2022-07-22T12:08:47;7.57;;;2.50;;
3629;SDS011;1831;53.626;10.012;2022-07-22T12:11:17;8.80;;;2.03;;
3629;SDS011;1831;53.626;10.012;2022-07-22T12:13:46;7.30;;;2.10;;
3629;SDS011;1831;53.626;10.012;2022-07-22T12:16:16;6.13;;;2.30;;
3629;SDS011;1831;53.626;10.012;2022-07-22T12:18:50;5.83;;;2.47;;
3629;SDS011;1831;53.626;10.012;2022-07-22T12:21:18;6.20;;;2.47;;
3629;SDS011;1831;53.626;10.012;2022-07-22T12:23:49;6.63;;;2.57;;
3629;SDS011;1831;53.626;10.012;2022-07-22T12:26:16;6.40;;;2.37;;
3629;SDS011;1831;53.626;10.012;2022-07-22T12:28:43;8.87;;;2.60;;
3629;SDS011;1831;53.626;10.012;2022-07-22T12:31:12;5.77;;;2.47;;
3629;SDS011;1831;53.626;10.012;2022-07-22T12:33:48;5.93;;;2.40;;
3629;SDS011;1831;53.626;10.012;2022-07-22T12:36:15;6.90;;;2.40;;
3629;SDS011;1831;53.626;10.012;2022-07-22T12:38:42;5.40;;;2.37;;
3629;SDS011;1831;53.626;10.012;2022-07-22T12:41:22;6.00;;;2.47;;
3629;SDS011;1831;53.626;10.012;2022-07-22T12:43:50;7.83;;;2.10;;
3629;SDS011;1831;53.626;10.012;2022-07-22T12:46:17;8.27;;;2.33;;
3629;SDS011;1831;53.626;10.012;2022-07-22T12:48:49;7.13;;;2.30;;
3629;SDS011;1831;53.626;10.012;2022-07-22T12:51:17;11.40;;;2.63;;
3629;SDS011;1831;53.626;10.012;2022-07-22T12:53:44;10.03;;;2.60;;
3629;SDS011;1831;53.626;10.012;2022-07-22T12:56:12;6.37;;;2.10;;
3629;SDS011;1831;53.626;10.012;2022-07-22T12:58:39;5.43;;;2.17;;
3629;SDS011;1831;53.626;10.012;2022-07-22T13:01:06;10.03;;;2.50;;
3629;SDS011;1831;53.626;10.012;2022-07-22T13:03:35;6.90;;;2.70;;
3629;SDS011;1831;53.626;10.012;2022-07-22T13:06:03;5.73;;;2.50;;
3629;SDS011;1831;53.626;10.012;2022-07-22T13:08:31;7.13;;;2.90;;
3629;SDS011;1831;53.626;10.012;2022-07-22T13:10:58;7.97;;;2.77;;
3629;SDS011;1831;53.626;10.012;2022-07-22T13:13:25;6.77;;;2.13;;
3629;SDS011;1831;53.626;10.012;2022-07-22T13:15:53;5.00;;;2.33;;
3629;SDS011;1831;53.626;10.012;2022-07-22T13:18:20;6.90;;;3.60;;
3629;SDS011;1831;53.626;10.012;2022-07-22T13:20:46;11.63;;;4.00;;
3629;SDS011;1831;53.626;10.012;2022-07-22T13:23:15;6.73;;;2.37;;
3629;SDS011;1831;53.626;10.012;2022-07-22T13:25:42;7.00;;;1.93;;
3629;SDS011;1831;53.626;10.012;2022-07-22T13:28:12;4.93;;;2.23;;
3629;SDS011;1831;53.626;10.012;2022-07-22T13:30:39;6.47;;;2.57;;
3629;SDS011;1831;53.626;10.012;2022-07-22T13:33:06;6.53;;;2.40;;
3629;SDS011;1831;53.626;10.012;2022-07-22T13:35:33;6.50;;;2.40;;
3629;SDS011;1831;53.626;10.012;2022-07-22T13:38:00;5.30;;;2.13;;
3629;SDS011;1831;53.626;10.012;2022-07-22T13:40:29;7.17;;;2.33;;
3629;SDS011;1831;53.626;10.012;2022-07-22T13:42:56;6.23;;;2.33;;
3629;SDS011;1831;53.626;10.012;2022-07-22T13:45:23;4.80;;;2.13;;
3629;SDS011;1831;53.626;10.012;2022-07-22T13:47:50;6.40;;;2.07;;
3629;SDS011;1831;53.626;10.012;2022-07-22T13:50:17;8.70;;;2.80;;
3629;SDS011;1831;53.626;10.012;2022-07-22T13:52:44;10.60;;;4.73;;
3629;SDS011;1831;53.626;10.012;2022-07-22T13:55:12;7.40;;;2.87;;
3629;SDS011;1831;53.626;10.012;2022-07-22T13:57:41;11.83;;;7.50;;
3629;SDS011;1831;53.626;10.012;2022-07-22T14:00:09;8.80;;;2.60;;
3629;SDS011;1831;53.626;10.012;2022-07-22T14:02:38;12.03;;;7.53;;
3629;SDS011;1831;53.626;10.012;2022-07-22T14:05:05;5.53;;;2.20;;
3629;SDS011;1831;53.626;10.012;2022-07-22T14:07:33;7.83;;;2.20;;
3629;SDS011;1831;53.626;10.012;2022-07-22T14:10:00;5.83;;;1.87;;
3629;SDS011;1831;53.626;10.012;2022-07-22T14:12:27;9.03;;;3.00;;
3629;SDS011;1831;53.626;10.012;2022-07-22T14:14:55;6.70;;;2.57;;
3629;SDS011;1831;53.626;10.012;2022-07-22T14:17:22;5.73;;;2.30;;
3629;SDS011;1831;53.626;10.012;2022-07-22T14:19:49;5.17;;;2.40;;
3629;SDS011;1831;53.626;10.012;2022-07-22T14:22:16;13.23;;;3.07;;
3629;SDS011;1831;53.626;10.012;2022-07-22T14:24:43;9.40;;;3.37;;
3629;SDS011;1831;53.626;10.012;2022-07-22T14:27:10;7.97;;;2.80;;
3629;SDS011;1831;53.626;10.012;2022-07-22T14:29:37;5.93;;;2.20;;
3629;SDS011;1831;53.626;10.012;2022-07-22T14:32:05;5.33;;;2.13;;
3629;SDS011;1831;53.626;10.012;2022-07-22T14:34:32;8.43;;;2.10;;
3629;SDS011;1831;53.626;10.012;2022-07-22T14:36:59;11.47;;;3.17;;
3629;SDS011;1831;53.626;10.012;2022-07-22T14:39:27;5.07;;;2.00;;
3629;SDS011;1831;53.626;10.012;2022-07-22T14:41:53;4.07;;;1.50;;
3629;SDS011;1831;53.626;10.012;2022-07-22T14:44:20;5.83;;;1.73;;
3629;SDS011;1831;53.626;10.012;2022-07-22T14:46:47;5.03;;;2.10;;
3629;SDS011;1831;53.626;10.012;2022-07-22T14:49:16;8.43;;;2.20;;
3629;SDS011;1831;53.626;10.012;2022-07-22T14:51:42;4.70;;;1.63;;
3629;SDS011;1831;53.626;10.012;2022-07-22T14:54:09;3.17;;;1.30;;
3629;SDS011;1831;53.626;10.012;2022-07-22T14:56:37;4.90;;;1.87;;
3629;SDS011;1831;53.626;10.012;2022-07-22T14:59:04;6.00;;;2.00;;